Terminal Aerodrome Forecast
Issued by NWS

Home | Current Version | Previous Version | Graphics & Text | Print | Product List | Glossary Off
Versions: 1 2 3 4 5 6 7 8 9 10 11 12 13 14 15 16 17 18 19 20 21 22 23 24 25 26 27 28 29 30 31 32 33 34 35 36 37 38 39 40 41 42

913
FTUS43 KDDC 190959 AAA
TAFGCK
TAF AMD
KGCK 190959Z 1910/2006 16004KT 3SM BR SCT020
     FM191100 18010KT 3SM BR OVC010
      TEMPO 1911/1914 1SM BR BKN008
     FM191600 18011KT P6SM BKN060
     FM191800 17015G24KT P6SM BKN110=

USA.gov is the U.S. government's official web portal to all federal, state and local government web resources and services.